Terminal Aerodrome Forecast
Issued by NWS Cleveland, OH

Home | Current Version | Previous Version | Graphics & Text | Print | Product List | Glossary On
Versions: 1 2 3 4 5 6 7 8 9 10 11 12 13 14 15 16 17 18 19 20 21 22 23 24
693
FTUS41 KCLE 210914 AAA
TAFMFD
TAF AMD
KMFD 210914Z 2109/2206 32005KT 1/4SM FG VV002
      TEMPO 2109/2113 32004KT 3/4SM BR OVC004
     FM211300 31005KT 2SM BR OVC005
      TEMPO 2113/2115 4SM BR SCT007
     FM211500 30008KT P6SM SCT015
     FM220400 33010KT P6SM BKN035=

USA.gov is the U.S. government's official web portal to all federal, state and local government web resources and services.